Time;durP1;ratioP1;P1;durP2;ratioP2;P2;SDS_P1;SDS_P2;PMS_P1;PMS_P2;Temp;Humidity;BMP_temperature;BMP_pressure;BME280_temperature;BME280_humidity;BME280_pressure;Samples;Min_cycle;Max_cycle;Signal;HPM_P1;HPM_P2
2022/09/20 00:01:12;;;;;;;;;;;;;;;6.62;100.00;100228.64;1453861;89;20338;-82
2022/09/20 00:03:41;;;;;;;;;;;;;;;6.60;100.00;100223.98;1462099;89;20420;-80
2022/09/20 00:06:09;;;;;;;;;;;;;;;6.61;100.00;100227.44;1458878;89;20432;-81
2022/09/20 00:08:35;;;;;;;;;;;;;;;6.61;100.00;100224.80;1448844;89;20944;-81
2022/09/20 00:11:03;;;;;;;;;;;;;;;6.60;100.00;100231.87;1440453;91;20320;-81
2022/09/20 00:13:29;;;;;;;;;;;;;;;6.58;100.00;100225.06;1439700;89;21002;-80
2022/09/20 00:15:55;;;;;;;;;;;;;;;6.55;100.00;100228.78;1439727;89;20386;-81
2022/09/20 00:18:22;;;;;;;;;;;;;;;6.55;100.00;100228.78;1436204;89;20340;-79
2022/09/20 00:20:49;;;;;;;;;;;;;;;6.55;100.00;100232.23;1438994;91;20350;-82
2022/09/20 00:23:15;;;;;;;;;;;;;;;6.58;100.00;100235.58;1446977;89;20823;-82
2022/09/20 00:25:42;;;;;;;;;;;;;;;6.61;100.00;100230.06;1433898;89;20394;-80
2022/09/20 00:28:09;;;;;;;;;;;;;;;6.63;100.00;100227.66;1390754;89;20443;-80
2022/09/20 00:30:36;;;;;;;;;;;;;;;6.66;100.00;100227.90;1467151;89;20905;-80
2022/09/20 00:33:02;;;;;;;;;;;;;;;6.72;100.00;100227.38;1453683;89;20384;-80
2022/09/20 00:35:28;;;;;;;;;;;;;;;6.76;100.00;100227.02;1467803;89;20384;-80
2022/09/20 00:37:54;;;;;;;;;;;;;;;6.79;100.00;100231.19;1447838;89;20417;-80
2022/09/20 00:40:22;;;;;;;;;;;;;;;6.83;100.00;100234.39;1438643;89;20372;-81
2022/09/20 00:42:49;;;;;;;;;;;;;;;6.83;100.00;100234.39;1454051;89;21112;-81
2022/09/20 00:45:21;;;;;;;;;;;;;;;6.83;100.00;100231.27;1447771;89;20364;-81
2022/09/20 00:47:57;;;;;;;;;;;;;;;6.85;100.00;100232.44;1444493;89;20327;-81
2022/09/20 00:50:41;;;;;;;;;;;;;;;6.85;100.00;100230.67;1452645;89;20434;-82
2022/09/20 00:53:20;;;;;;;;;;;;;;;6.89;100.00;100233.87;1434632;89;20327;-80
2022/09/20 00:55:49;;;;;;;;;;;;;;;6.86;100.00;100232.81;1455140;89;20298;-81
2022/09/20 00:58:16;;;;;;;;;;;;;;;6.85;100.00;100232.44;1471340;89;20408;-81
2022/09/20 01:00:44;;;;;;;;;;;;;;;6.80;100.00;100228.90;1463231;89;20465;-81
2022/09/20 01:03:11;;;;;;;;;;;;;;;6.76;100.00;100228.78;1454312;89;20361;-81
2022/09/20 01:05:38;;;;;;;;;;;;;;;6.70;100.00;100231.47;1455757;89;20384;-81
2022/09/20 01:08:05;;;;;;;;;;;;;;;6.65;100.00;100225.75;1443810;89;20871;-82
2022/09/20 01:10:31;;;;;;;;;;;;;;;6.60;100.00;100225.78;1460927;89;20347;-80
2022/09/20 01:12:57;;;;;;;;;;;;;;;6.57;100.00;100221.61;1459666;89;20406;-81
2022/09/20 01:15:26;;;;;;;;;;;;;;;6.54;100.00;100221.86;1458281;89;20964;-80
2022/09/20 01:17:54;;;;;;;;;;;;;;;6.51;100.00;100220.80;1456355;89;20453;-80
2022/09/20 01:20:23;;;;;;;;;;;;;;;6.47;100.00;100225.94;1468975;89;20883;-81
2022/09/20 01:23:01;;;;;;;;;;;;;;;6.43;100.00;100219.27;1468907;89;20354;-80
2022/09/20 01:25:52;;;;;;;;;;;;;;;6.44;100.00;100226.19;1455523;89;21228;-81
2022/09/20 01:28:20;;;;;;;;;;;;;;;6.49;100.00;100222.71;1451278;89;20605;-80
2022/09/20 01:30:49;;;;;;;;;;;;;;;6.53;100.00;100217.55;1454964;89;20337;-81
2022/09/20 01:33:22;;;;;;;;;;;;;;;6.58;100.00;100220.63;1456621;89;20400;-81
2022/09/20 01:35:49;;;;;;;;;;;;;;;6.63;100.00;100218.95;1462127;89;20413;-81
2022/09/20 01:38:28;;;;;;;;;;;;;;;6.68;100.00;100214.15;1456627;89;20309;-79
2022/09/20 01:41:18;;;;;;;;;;;;;;;6.72;100.00;100219.00;1439506;89;20309;-81
2022/09/20 01:43:53;;;;;;;;;;;;;;;6.76;100.00;100216.49;1458506;89;20346;-81
2022/09/20 01:46:32;;;;;;;;;;;;;;;6.83;100.00;100218.61;1459899;89;20876;-81
2022/09/20 01:49:17;;;;;;;;;;;;;;;6.85;100.00;100225.41;1463114;89;20590;-81
2022/09/20 01:52:02;;;;;;;;;;;;;;;6.87;100.00;100224.78;1439981;89;20899;-80
2022/09/20 01:54:51;;;;;;;;;;;;;;;6.86;100.00;100227.55;1443178;89;20402;-80
2022/09/20 01:57:40;;;;;;;;;;;;;;;6.87;100.00;100232.67;1462788;89;20385;-81
2022/09/20 02:00:17;;;;;;;;;;;;;;;6.88;100.00;100223.00;1453217;89;20833;-81
2022/09/20 02:03:08;;;;;;;;;;;;;;;6.88;100.00;100224.33;1465625;89;20794;-80
2022/09/20 02:06:04;;;;;;;;;;;;;;;6.88;100.00;100226.95;1450355;89;20822;-79
2022/09/20 02:09:04;;;;;;;;;;;;;;;6.86;100.00;100231.50;1439613;90;20324;-80
2022/09/20 02:11:45;;;;;;;;;;;;;;;6.87;100.00;100233.16;1399123;93;20968;-81
2022/09/20 02:14:21;;;;;;;;;;;;;;;6.87;100.00;100233.16;1403177;93;20311;-81
2022/09/20 02:16:50;;;;;;;;;;;;;;;6.86;100.00;100227.06;1415419;90;20394;-80
2022/09/20 02:19:36;;;;;;;;;;;;;;;6.85;100.00;100226.73;1447792;90;20320;-81
2022/09/20 02:22:36;;;;;;;;;;;;;;;6.81;100.00;100229.73;1439982;90;20342;-80
2022/09/20 02:25:33;;;;;;;;;;;;;;;6.79;100.00;100236.45;1438049;90;20363;-80
2022/09/20 02:28:08;;;;;;;;;;;;;;;6.78;100.00;100232.12;1439293;90;21078;-82
2022/09/20 02:30:53;;;;;;;;;;;;;;;6.76;100.00;100232.27;1433394;90;20334;-82
2022/09/20 02:33:25;;;;;;;;;;;;;;;6.72;100.00;100232.16;1443040;90;20414;-81
2022/09/20 02:36:01;;;;;;;;;;;;;;;6.71;100.00;100234.45;1435150;90;20465;-81
2022/09/20 02:38:50;;;;;;;;;;;;;;;6.72;100.00;100241.36;1417146;90;20301;-81
2022/09/20 02:41:38;;;;;;;;;;;;;;;6.76;100.00;100244.11;1415233;92;20348;-82
2022/09/20 02:44:07;;;;;;;;;;;;;;;6.82;100.00;100246.72;1436764;91;20253;-81
2022/09/20 02:46:43;;;;;;;;;;;;;;;6.86;100.00;100245.97;1435703;90;20288;-82
2022/09/20 02:49:15;;;;;;;;;;;;;;;6.92;100.00;100246.77;1399734;93;20409;-80
2022/09/20 02:51:45;;;;;;;;;;;;;;;6.96;100.00;100242.91;1397866;92;20379;-82
2022/09/20 02:54:23;;;;;;;;;;;;;;;6.99;100.00;100246.59;1420166;91;20522;-80
2022/09/20 02:56:59;;;;;;;;;;;;;;;7.01;100.00;100252.08;1405177;90;20302;-80
2022/09/20 02:59:39;;;;;;;;;;;;;;;7.07;100.00;100253.85;1406270;92;20744;-79
2022/09/20 03:02:20;;;;;;;;;;;;;;;7.11;100.00;100252.16;1409589;92;20290;-80
2022/09/20 03:05:13;;;;;;;;;;;;;;;7.16;100.00;100264.91;1407369;93;21381;-79
2022/09/20 03:07:42;;;;;;;;;;;;;;;7.15;100.00;100261.94;1400083;90;20414;-80
2022/09/20 03:10:15;;;;;;;;;;;;;;;7.16;100.00;100260.96;1426359;92;20280;-80
2022/09/20 03:12:59;;;;;;;;;;;;;;;7.15;100.00;100264.08;1417997;92;20287;-80
2022/09/20 03:15:56;;;;;;;;;;;;;;;7.10;100.00;100248.33;1413981;92;20297;-82
2022/09/20 03:18:45;;;;;;;;;;;;;;;7.07;100.00;100253.36;1382602;94;21110;-80
2022/09/20 03:21:38;;;;;;;;;;;;;;;7.04;100.00;100258.89;1390777;93;20321;-81
2022/09/20 03:24:17;;;;;;;;;;;;;;;7.00;100.00;100260.12;1393450;92;20312;-81
2022/09/20 03:26:47;;;;;;;;;;;;;;;6.97;100.00;100259.06;1413293;92;20794;-80
2022/09/20 03:29:28;;;;;;;;;;;;;;;6.94;100.00;100257.52;1412077;92;20313;-81
2022/09/20 03:32:01;;;;;;;;;;;;;;;6.93;100.00;100264.21;1406351;92;20291;-80
2022/09/20 03:34:43;;;;;;;;;;;;;;;6.91;100.00;100265.67;1395961;92;20282;-79
2022/09/20 03:37:45;;;;;;;;;;;;;;;6.90;100.00;100267.09;1405135;92;20342;-81
2022/09/20 03:40:20;;;;;;;;;;;;;;;6.87;100.00;100269.50;1370107;94;20385;-81
2022/09/20 03:42:48;;;;;;;;;;;;;;;6.86;100.00;100267.02;1399823;92;20355;-80
2022/09/20 03:45:27;;;;;;;;;;;;;;;6.85;100.00;100273.22;1408961;92;20364;-81
2022/09/20 03:48:00;;;;;;;;;;;;;;;6.84;100.00;100270.24;1401761;92;20267;-81
2022/09/20 03:50:51;;;;;;;;;;;;;;;6.85;100.00;100270.59;1403253;93;20864;-80
2022/09/20 03:53:33;;;;;;;;;;;;;;;6.89;100.00;100278.11;1413812;92;20778;-79
2022/09/20 03:56:21;;;;;;;;;;;;;;;6.94;100.00;100281.69;1416312;92;20297;-80
2022/09/20 03:58:54;;;;;;;;;;;;;;;6.97;100.00;100273.53;1417805;92;20258;-81
2022/09/20 04:01:45;;;;;;;;;;;;;;;7.02;100.00;100279.25;1412758;92;20413;-80
2022/09/20 04:04:14;;;;;;;;;;;;;;;7.08;100.00;100281.37;1419307;92;20317;-81
2022/09/20 04:07:22;;;;;;;;;;;;;;;7.13;100.00;100279.65;1425026;92;20309;-81
2022/09/20 04:09:58;;;;;;;;;;;;;;;7.20;100.00;100283.45;1426017;92;20354;-79
2022/09/20 04:12:54;;;;;;;;;;;;;;;7.26;100.00;100281.61;1407180;92;20282;-81
2022/09/20 04:15:41;;;;;;;;;;;;;;;7.30;100.00;100283.00;1397544;93;20415;-82
2022/09/20 04:18:11;;;;;;;;;;;;;;;7.36;100.00;100279.84;1398334;92;20364;-82
2022/09/20 04:20:45;;;;;;;;;;;;;;;7.41;100.00;100282.10;1404460;92;20237;-82
2022/09/20 04:23:33;;;;;;;;;;;;;;;7.43;100.00;100286.77;1404195;92;20758;-80
2022/09/20 04:26:00;;;;;;;;;;;;;;;7.44;100.00;100291.05;1433747;92;20837;-80
2022/09/20 04:28:36;;;;;;;;;;;;;;;7.44;100.00;100287.94;1417237;92;20312;-80
2022/09/20 04:31:15;;;;;;;;;;;;;;;7.44;100.00;100300.27;1422245;92;20353;-80
2022/09/20 04:33:44;;;;;;;;;;;;;;;7.43;100.00;100299.93;1423666;92;20310;-80
2022/09/20 04:36:28;;;;;;;;;;;;;;;7.40;100.00;100302.83;1407070;92;20335;-80
2022/09/20 04:39:22;;;;;;;;;;;;;;;7.37;100.00;100299.14;1407548;92;20285;-81
2022/09/20 04:41:54;;;;;;;;;;;;;;;7.35;100.00;100306.33;1425089;92;21255;-80
2022/09/20 04:44:40;;;;;;;;;;;;;;;7.32;100.00;100306.58;1406505;92;20341;-80
2022/09/20 04:47:30;;;;;;;;;;;;;;;7.30;100.00;100301.44;1410970;92;20311;-79
2022/09/20 04:50:17;;;;;;;;;;;;;;;7.31;100.00;100299.17;1396772;92;20272;-81
2022/09/20 04:53:08;;;;;;;;;;;;;;;7.34;100.00;100304.66;1397298;93;20319;-82
2022/09/20 04:55:43;;;;;;;;;;;;;;;7.35;100.00;100302.38;1394200;92;20390;-82
2022/09/20 04:58:25;;;;;;;;;;;;;;;7.39;100.00;100305.09;1426251;92;20309;-83
2022/09/20 05:01:15;;;;;;;;;;;;;;;7.43;100.00;100303.88;1426546;92;20838;-81
2022/09/20 05:03:54;;;;;;;;;;;;;;;7.48;100.00;100301.70;1407392;93;20349;-81
2022/09/20 05:06:26;;;;;;;;;;;;;;;7.54;100.00;100304.27;1404273;93;21025;-81
2022/09/20 05:09:12;;;;;;;;;;;;;;;7.57;100.00;100306.17;1404894;93;20389;-80
2022/09/20 05:12:14;;;;;;;;;;;;;;;7.59;100.00;100304.22;1404236;93;20305;-80
2022/09/20 05:14:46;;;;;;;;;;;;;;;7.60;100.00;100309.86;1406592;92;20477;-82
2022/09/20 05:17:25;;;;;;;;;;;;;;;7.61;100.00;100310.20;1420086;92;20382;-81
2022/09/20 05:20:23;;;;;;;;;;;;;;;7.62;100.00;100314.52;1422340;92;20368;-81
2022/09/20 05:23:12;;;;;;;;;;;;;;;7.64;100.00;100319.16;1408287;93;20423;-82
2022/09/20 05:25:59;;;;;;;;;;;;;;;7.67;100.00;100322.02;1397314;93;20290;-81
2022/09/20 05:28:44;;;;;;;;;;;;;;;7.71;100.00;100319.94;1397128;93;20297;-81
2022/09/20 05:31:41;;;;;;;;;;;;;;;7.69;100.00;100313.02;1405225;93;20445;-81
2022/09/20 05:34:17;;;;;;;;;;;;;;;7.73;100.00;100323.28;1398173;92;20281;-79
2022/09/20 05:37:05;;;;;;;;;;;;;;;7.75;100.00;100321.36;1401203;93;20364;-81
2022/09/20 05:39:37;;;;;;;;;;;;;;;7.80;100.00;100315.22;1400204;93;20803;-81
2022/09/20 05:42:38;;;;;;;;;;;;;;;7.83;100.00;100318.91;1404325;93;20431;-80
2022/09/20 05:45:35;;;;;;;;;;;;;;;7.86;100.00;100316.00;1403464;93;20275;-81
2022/09/20 05:48:18;;;;;;;;;;;;;;;7.99;100.00;100319.72;1377504;93;20341;-80
2022/09/20 05:50:54;;;;;;;;;;;;;;;8.16;100.00;100323.52;1408103;93;20501;-80
2022/09/20 05:53:45;;;;;;;;;;;;;;;8.34;100.00;100315.30;1401970;93;20313;-80
2022/09/20 05:56:21;;;;;;;;;;;;;;;8.48;100.00;100318.89;1406049;93;20400;-80
2022/09/20 05:58:56;;;;;;;;;;;;;;;8.53;100.00;100318.00;1401470;93;20297;-81
2022/09/20 06:01:25;;;;;;;;;;;;;;;8.50;100.00;100324.05;1401940;93;20411;-81
2022/09/20 06:03:55;;;;;;;;;;;;;;;8.58;100.00;100330.80;1391548;93;20790;-80
2022/09/20 06:06:27;;;;;;;;;;;;;;;8.66;100.00;100327.45;1402961;93;20312;-80
2022/09/20 06:08:59;;;;;;;;;;;;;;;8.74;100.00;100328.92;1406038;93;20290;-80
2022/09/20 06:11:32;;;;;;;;;;;;;;;8.77;100.00;100332.59;1407104;93;20788;-80
2022/09/20 06:14:16;;;;;;;;;;;;;;;8.80;100.00;100322.63;1402758;93;20268;-79
2022/09/20 06:16:58;;;;;;;;;;;;;;;8.90;100.00;100325.25;1386028;93;20885;-82
2022/09/20 06:19:54;;;;;;;;;;;;;;;9.04;100.00;100322.19;1403708;93;20920;-81
2022/09/20 06:22:42;;;;;;;;;;;;;;;9.19;100.00;100324.39;1400558;93;20282;-80
2022/09/20 06:25:12;;;;;;;;;;;;;;;9.42;100.00;100324.42;1404803;93;20839;-82
2022/09/20 06:27:44;;;;;;;;;;;;;;;9.58;100.00;100325.62;1405847;93;20408;-82
2022/09/20 06:30:26;;;;;;;;;;;;;;;9.66;100.00;100328.37;1401161;93;20267;-82
2022/09/20 06:33:01;;;;;;;;;;;;;;;9.68;100.00;100336.52;1402774;93;20932;-80
2022/09/20 06:35:34;;;;;;;;;;;;;;;9.66;100.00;100340.27;1400884;93;20357;-81
2022/09/20 06:43:39;;;;;;;;;;;;;;;9.63;100.00;100349.81;1402074;93;20274;-77
2022/09/20 06:46:04;;;;;;;;;;;;;;;9.65;100.00;100350.02;1404781;92;20501;-78
2022/09/20 06:48:30;;;;;;;;;;;;;;;9.61;100.00;100346.47;1399236;92;20608;-78
2022/09/20 06:50:57;;;;;;;;;;;;;;;9.59;100.00;100347.12;1418869;92;20837;-79
2022/09/20 06:53:27;;;;;;;;;;;;;;;9.64;100.00;100344.89;1421807;92;20272;-78
2022/09/20 06:55:53;;;;;;;;;;;;;;;9.64;100.00;100347.04;1501817;92;20354;-77
2022/09/20 06:58:19;;;;;;;;;;;;;;;9.64;100.00;100347.53;1353181;92;20266;-78
2022/09/20 07:00:45;;;;;;;;;;;;;;;9.59;100.00;100339.20;1353065;92;20311;-77
2022/09/20 07:03:11;;;;;;;;;;;;;;;9.55;100.00;100343.08;1352778;92;20256;-77
2022/09/20 07:05:38;;;;;;;;;;;;;;;9.54;100.00;100350.67;1358047;92;20787;-78
2022/09/20 07:08:04;;;;;;;;;;;;;;;9.61;100.00;100354.39;1502258;92;20265;-77
2022/09/20 07:10:30;;;;;;;;;;;;;;;9.80;100.00;100363.59;1352835;92;20250;-77
2022/09/20 07:12:59;;;;;;;;;;;;;;;10.10;100.00;100360.38;1358402;92;20258;-77
2022/09/20 07:15:30;;;;;;;;;;;;;;;10.33;100.00;100364.81;1348924;94;20289;-76
2022/09/20 07:17:55;;;;;;;;;;;;;;;10.48;100.00;100367.80;1351300;92;20771;-77
2022/09/20 07:20:30;;;;;;;;;;;;;;;10.60;100.00;100366.10;1352933;92;20251;-77
2022/09/20 07:22:59;;;;;;;;;;;;;;;10.70;99.75;100370.00;1495569;92;20340;-78
2022/09/20 07:25:24;;;;;;;;;;;;;;;10.80;98.69;100373.92;1353459;92;21221;-80
2022/09/20 07:27:50;;;;;;;;;;;;;;;10.88;97.92;100383.77;1353065;92;20250;-79
2022/09/20 07:30:18;;;;;;;;;;;;;;;10.91;97.12;100387.44;1352994;92;20764;-79
2022/09/20 07:32:44;;;;;;;;;;;;;;;10.92;96.45;100387.77;1356438;92;20243;-80
2022/09/20 07:35:11;;;;;;;;;;;;;;;10.90;95.53;100392.38;1353184;92;20267;-80
2022/09/20 07:37:40;;;;;;;;;;;;;;;10.90;94.86;100394.52;1361382;92;20302;-80
2022/09/20 07:40:06;;;;;;;;;;;;;;;10.89;94.82;100397.33;1423046;90;20387;-80
2022/09/20 07:42:32;;;;;;;;;;;;;;;10.84;94.74;100394.62;1351083;92;20763;-80
2022/09/20 07:45:00;;;;;;;;;;;;;;;10.80;93.51;100401.72;1359057;92;20258;-80
2022/09/20 07:47:26;;;;;;;;;;;;;;;10.83;94.37;100396.95;1348667;92;20340;-78
2022/09/20 07:49:52;;;;;;;;;;;;;;;10.94;94.65;100404.34;1358072;92;20340;-79
2022/09/20 07:52:18;;;;;;;;;;;;;;;10.99;93.37;100395.43;1404151;92;20243;-80
2022/09/20 07:54:44;;;;;;;;;;;;;;;10.95;90.91;100402.02;1352800;92;20258;-80
2022/09/20 07:57:11;;;;;;;;;;;;;;;10.96;91.56;100399.23;1351983;92;20251;-80
2022/09/20 07:59:37;;;;;;;;;;;;;;;11.12;91.97;100402.52;1351893;92;20280;-79
2022/09/20 08:02:03;;;;;;;;;;;;;;;11.20;92.80;100405.25;1382253;92;20294;-80
2022/09/20 08:04:29;;;;;;;;;;;;;;;11.24;91.46;100406.59;1421025;92;21623;-80
2022/09/20 08:06:57;;;;;;;;;;;;;;;11.27;91.86;100406.78;1427628;92;20317;-80
2022/09/20 08:09:23;;;;;;;;;;;;;;;11.30;89.32;100411.77;1431578;92;20347;-79
2022/09/20 08:11:49;;;;;;;;;;;;;;;11.36;91.02;100414.31;1416059;92;20339;-80
2022/09/20 08:14:17;;;;;;;;;;;;;;;11.43;91.41;100415.38;1422237;92;20340;-80
2022/09/20 08:16:48;;;;;;;;;;;;;;;11.51;91.81;100414.13;1435063;92;20387;-81
2022/09/20 08:19:17;;;;;;;;;;;;;;;11.60;90.40;100421.14;1418409;92;20286;-79
2022/09/20 08:21:43;;;;;;;;;;;;;;;11.67;90.72;100416.05;1420989;90;20324;-80
2022/09/20 08:24:09;;;;;;;;;;;;;;;11.70;90.67;100419.21;1419120;92;20823;-78
2022/09/20 08:26:35;;;;;;;;;;;;;;;11.74;90.21;100419.75;1425114;92;20316;-80
2022/09/20 08:29:04;;;;;;;;;;;;;;;11.80;90.32;100409.85;1427733;92;20807;-79
2022/09/20 08:31:35;;;;;;;;;;;;;;;11.92;90.52;100411.77;1432166;92;20927;-79
2022/09/20 08:34:05;;;;;;;;;;;;;;;12.10;91.16;100408.55;1435593;92;20341;-79
2022/09/20 08:36:32;;;;;;;;;;;;;;;12.25;88.45;100413.27;1428589;92;20421;-80
2022/09/20 08:38:58;;;;;;;;;;;;;;;12.07;82.24;100406.22;1427456;92;20250;-80
2022/09/20 08:41:37;;;;;;;;;;;;;;;12.23;85.27;100412.58;1432122;92;20301;-80
2022/09/20 08:44:07;;;;;;;;;;;;;;;12.43;86.84;100410.05;1421300;90;20325;-80
2022/09/20 08:46:36;;;;;;;;;;;;;;;12.59;85.28;100418.55;1426801;90;20398;-80
2022/09/20 08:49:06;;;;;;;;;;;;;;;12.74;86.23;100413.45;1422886;92;20272;-78
2022/09/20 08:51:35;;;;;;;;;;;;;;;12.86;80.95;100421.47;1431983;92;20369;-79
2022/09/20 08:54:03;;;;;;;;;;;;;;;12.96;79.87;100414.16;1424967;90;20333;-80
2022/09/20 08:56:33;;;;;;;;;;;;;;;13.20;81.66;100415.19;1427735;92;20294;-80
2022/09/20 08:58:59;;;;;;;;;;;;;;;13.34;82.31;100407.92;1413740;90;20399;-80
2022/09/20 09:01:28;;;;;;;;;;;;;;;13.03;76.03;100408.55;1428473;92;20451;-80
2022/09/20 09:03:57;;;;;;;;;;;;;;;13.16;80.31;100408.05;1431874;92;20309;-80
2022/09/20 09:06:24;;;;;;;;;;;;;;;13.30;81.17;100410.59;1431600;92;20779;-79
2022/09/20 09:08:52;;;;;;;;;;;;;;;13.42;81.03;100416.41;1422312;92;20409;-78
2022/09/20 09:11:20;;;;;;;;;;;;;;;13.49;80.15;100414.25;1420974;92;20512;-79
2022/09/20 09:17:00;;;;;;;;;;;;;;;13.91;80.99;100407.86;1406231;92;20290;-80
2022/09/20 09:19:29;;;;;;;;;;;;;;;14.00;79.29;100410.83;1402937;93;20892;-79
2022/09/20 09:22:00;;;;;;;;;;;;;;;13.88;76.27;100404.22;1397738;93;20289;-81
2022/09/20 09:24:26;;;;;;;;;;;;;;;13.88;75.22;100408.71;1332694;92;20349;-81
2022/09/20 09:27:08;;;;;;;;;;;;;;;13.90;76.72;100394.23;1334224;93;20960;-80
2022/09/20 09:29:34;;;;;;;;;;;;;;;13.95;76.10;100396.37;1474866;93;20820;-80
2022/09/20 09:32:10;;;;;;;;;;;;;;;13.94;73.35;100397.38;1334727;92;20261;-79
2022/09/20 09:34:37;;;;;;;;;;;;;;;13.92;74.40;100390.89;1338377;93;21039;-80
2022/09/20 09:37:03;;;;;;;;;;;;;;;13.85;75.02;100397.91;1480072;92;20284;-78
2022/09/20 09:39:32;;;;;;;;;;;;;;;13.64;74.57;100394.96;1335625;92;20231;-80
2022/09/20 09:41:59;;;;;;;;;;;;;;;13.55;74.60;100396.77;1332644;92;20390;-78
2022/09/20 09:44:27;;;;;;;;;;;;;;;13.52;75.59;100394.45;1338899;92;20331;-78
2022/09/20 09:46:55;;;;;;;;;;;;;;;13.68;76.69;100393.61;1332874;92;20901;-78
2022/09/20 09:49:26;;;;;;;;;;;;;;;13.76;75.76;100393.61;1333566;93;20260;-79
2022/09/20 09:52:24;;;;;;;;;;;;;;;13.69;71.92;100388.11;1396981;92;21139;-80
2022/09/20 09:54:50;;;;;;;;;;;;;;;13.93;75.19;100389.91;1340296;93;20276;-79
2022/09/20 09:57:27;;;;;;;;;;;;;;;14.29;72.96;100385.96;1480125;93;20245;-77
2022/09/20 10:00:16;;;;;;;;;;;;;;;14.50;72.03;100390.20;1480181;92;20276;-78
2022/09/20 10:03:06;;;;;;;;;;;;;;;14.40;70.67;100382.41;1331552;93;20350;-78
2022/09/20 10:05:40;;;;;;;;;;;;;;;14.42;71.21;100387.58;1333798;93;20252;-78
2022/09/20 10:08:36;;;;;;;;;;;;;;;14.61;66.59;100387.66;1487387;91;20323;-77
2022/09/20 10:11:13;;;;;;;;;;;;;;;14.86;65.46;100383.03;1472080;92;20388;-78
2022/09/20 10:14:12;;;;;;;;;;;;;;;15.41;71.15;100393.11;1336450;93;20758;-80
2022/09/20 10:17:16;;;;;;;;;;;;;;;15.55;70.52;100388.32;1333646;92;20268;-79
2022/09/20 10:20:06;;;;;;;;;;;;;;;15.49;66.43;100390.38;1335630;92;20342;-78
2022/09/20 10:22:36;;;;;;;;;;;;;;;15.56;69.45;100392.16;1478963;93;20283;-79
2022/09/20 10:25:16;;;;;;;;;;;;;;;15.71;68.15;100386.05;1335355;93;20336;-79
2022/09/20 10:28:08;;;;;;;;;;;;;;;15.90;69.60;100387.34;1340155;92;20317;-79
2022/09/20 10:30:55;;;;;;;;;;;;;;;15.60;64.15;100383.79;1488384;92;20354;-80
2022/09/20 10:33:56;;;;;;;;;;;;;;;15.50;64.36;100384.84;1338568;95;20247;-77
2022/09/20 10:36:43;;;;;;;;;;;;;;;15.28;62.91;100385.23;1491029;92;20252;-84
2022/09/20 10:39:22;;;;;;;;;;;;;;;15.62;65.25;100384.41;1491073;92;20306;-86
2022/09/20 10:45:02;;;;;;;;;;;;;;;15.82;63.01;100384.75;1507175;90;20287;-86
2022/09/20 10:47:35;;;;;;;;;;;;;;;15.76;63.69;100388.46;1373173;91;20332;-92
2022/09/20 10:50:28;;;;;;;;;;;;;;;15.93;60.50;100381.62;1405541;92;20349;-92
2022/09/20 10:53:05;;;;;;;;;;;;;;;16.01;62.10;100388.22;1424081;91;20376;-92
2022/09/20 10:56:10;;;;;;;;;;;;;;;16.01;62.15;100389.55;1367731;94;20323;-96
2022/09/20 10:58:44;;;;;;;;;;;;;;;15.98;61.11;100388.59;1373118;96;20866;-92
2022/09/20 11:01:31;;;;;;;;;;;;;;;15.87;59.71;100388.53;1371668;95;20619;-93
2022/09/20 11:04:19;;;;;;;;;;;;;;;16.03;57.94;100391.55;1370848;95;20369;-94
2022/09/20 11:07:12;;;;;;;;;;;;;;;16.21;61.58;100389.83;1366774;96;20310;-91
2022/09/20 11:09:59;;;;;;;;;;;;;;;16.21;57.40;100386.64;1378112;94;20323;-94
2022/09/20 11:12:37;;;;;;;;;;;;;;;16.54;61.60;100388.89;1367893;96;20844;-90
2022/09/20 11:15:16;;;;;;;;;;;;;;;16.95;62.14;100387.55;1365820;96;21051;-93
2022/09/20 11:17:47;;;;;;;;;;;;;;;17.28;61.56;100378.48;1370354;96;20451;-91
2022/09/20 11:20:26;;;;;;;;;;;;;;;17.20;55.99;100378.61;1370056;96;20407;-92
2022/09/20 11:22:59;;;;;;;;;;;;;;;17.33;58.24;100376.06;1366283;96;20451;-83
2022/09/20 11:25:50;;;;;;;;;;;;;;;17.06;53.00;100371.83;1362704;96;20346;-83
2022/09/20 11:28:32;;;;;;;;;;;;;;;17.01;55.97;100383.59;1322967;96;20837;-84
2022/09/20 11:31:12;;;;;;;;;;;;;;;16.67;55.95;100383.72;1367572;96;20438;-83
2022/09/20 11:33:51;;;;;;;;;;;;;;;16.82;59.60;100376.19;1425144;90;20324;-83
2022/09/20 11:36:34;;;;;;;;;;;;;;;17.19;59.59;100364.94;1512707;91;20370;-82
2022/09/20 11:39:16;;;;;;;;;;;;;;;17.61;57.12;100362.70;1513396;90;20416;-83
2022/09/20 11:41:44;;;;;;;;;;;;;;;18.10;53.10;100362.31;1473038;91;20251;-81
2022/09/20 11:44:13;;;;;;;;;;;;;;;18.46;55.08;100361.52;1366927;91;20259;-83
2022/09/20 11:46:46;;;;;;;;;;;;;;;18.25;49.45;100365.16;1512294;91;20801;-83
2022/09/20 11:49:16;;;;;;;;;;;;;;;17.78;49.10;100363.23;1480209;91;20361;-84
2022/09/20 11:52:02;;;;;;;;;;;;;;;17.50;53.10;100356.03;1468599;90;20341;-82
2022/09/20 11:54:44;;;;;;;;;;;;;;;17.43;53.68;100357.81;1434569;91;21213;-83
2022/09/20 11:57:15;;;;;;;;;;;;;;;17.25;51.73;100356.96;1432593;90;20347;-83
2022/09/20 11:59:45;;;;;;;;;;;;;;;17.33;54.91;100356.83;1441346;90;20325;-83
2022/09/20 12:02:24;;;;;;;;;;;;;;;17.44;56.51;100353.32;1339656;93;20244;-82
2022/09/20 12:04:52;;;;;;;;;;;;;;;17.50;56.72;100349.34;1504307;91;20919;-83
2022/09/20 12:07:40;;;;;;;;;;;;;;;17.40;54.08;100350.70;1361642;90;20325;-83
2022/09/20 12:10:26;;;;;;;;;;;;;;;17.19;52.65;100348.89;1369256;91;20317;-82
2022/09/20 12:13:07;;;;;;;;;;;;;;;17.06;54.89;100348.25;1367417;92;20250;-83
2022/09/20 12:15:39;;;;;;;;;;;;;;;17.14;55.74;100351.61;1411645;90;20511;-82
2022/09/20 12:18:27;;;;;;;;;;;;;;;17.02;53.83;100353.16;1435177;91;20948;-83
2022/09/20 12:20:58;;;;;;;;;;;;;;;16.93;54.06;100347.62;1436914;91;21596;-83
2022/09/20 12:23:41;;;;;;;;;;;;;;;16.84;56.72;100350.94;1434133;90;20452;-84
2022/09/20 12:26:12;;;;;;;;;;;;;;;16.86;56.58;100346.72;1434131;91;20468;-83
2022/09/20 12:28:42;;;;;;;;;;;;;;;16.80;55.17;100338.13;1508785;91;20922;-82
2022/09/20 12:31:31;;;;;;;;;;;;;;;16.61;53.84;100347.06;1340656;94;20252;-82
2022/09/20 12:34:14;;;;;;;;;;;;;;;16.54;55.05;100343.98;1345397;92;20779;-82
2022/09/20 12:36:45;;;;;;;;;;;;;;;16.44;56.54;100342.97;1411160;92;20394;-81
2022/09/20 12:39:16;;;;;;;;;;;;;;;16.39;58.15;100342.18;1402061;93;20321;-83
2022/09/20 12:41:57;;;;;;;;;;;;;;;16.66;57.16;100350.52;1401267;93;20410;-83
2022/09/20 12:44:40;;;;;;;;;;;;;;;16.87;54.83;100341.71;1405434;93;20923;-82
2022/09/20 12:47:14;;;;;;;;;;;;;;;17.27;52.33;100344.75;1400515;93;20426;-83
2022/09/20 12:52:49;;;;;;;;;;;;;;;18.52;52.66;100345.16;1459034;89;20299;-84
2022/09/20 12:55:39;;;;;;;;;;;;;;;19.34;51.41;100337.36;1452325;89;20292;-83
2022/09/20 12:58:12;;;;;;;;;;;;;;;19.73;50.47;100338.89;1457857;89;20858;-84
2022/09/20 13:00:49;;;;;;;;;;;;;;;19.69;50.19;100335.80;1452851;89;20307;-84
2022/09/20 13:03:27;;;;;;;;;;;;;;;19.53;48.86;100337.54;1461745;89;20337;-83
2022/09/20 13:06:11;;;;;;;;;;;;;;;19.08;48.58;100338.71;1542600;89;20744;-81
2022/09/20 13:09:03;;;;;;;;;;;;;;;18.83;50.50;100335.27;1542712;89;20250;-83
2022/09/20 13:11:37;;;;;;;;;;;;;;;18.52;50.93;100335.77;1515800;89;20352;-84
2022/09/20 13:14:17;;;;;;;;;;;;;;;18.17;51.48;100339.05;1536740;89;20852;-85
2022/09/20 13:16:56;;;;;;;;;;;;;;;17.92;50.50;100337.38;1542665;89;20286;-84
2022/09/20 13:19:27;;;;;;;;;;;;;;;17.73;52.11;100336.23;1382213;89;20919;-84
2022/09/20 13:22:01;;;;;;;;;;;;;;;17.67;53.80;100343.70;1542443;89;20338;-84
2022/09/20 13:24:34;;;;;;;;;;;;;;;17.68;52.39;100335.98;1431240;89;20345;-84
2022/09/20 13:27:10;;;;;;;;;;;;;;;17.68;52.43;100344.01;1457808;89;20307;-83
2022/09/20 13:29:43;;;;;;;;;;;;;;;17.57;51.89;100343.52;1458706;89;20867;-82
2022/09/20 13:32:25;;;;;;;;;;;;;;;17.14;48.74;100334.23;1450422;89;20369;-83
2022/09/20 13:35:13;;;;;;;;;;;;;;;16.93;50.11;100339.61;1461500;89;20310;-84
2022/09/20 13:37:46;;;;;;;;;;;;;;;16.74;53.11;100344.20;1461384;89;20837;-85